Time;durP1;ratioP1;P1;durP2;ratioP2;P2;SDS_P1;SDS_P2;PMS_P1;PMS_P2;Temp;Humidity;BMP_temperature;BMP_pressure;BME280_temperature;BME280_humidity;BME280_pressure;Samples;Min_cycle;Max_cycle;Signal;HPM_P1;HPM_P2
2022/05/29 00:01:51;;;;;;;14.43;3.83;;;11.00;99.90;;;;;;5066980;28;20057;-68
2022/05/29 00:04:17;;;;;;;14.30;2.97;;;11.00;99.90;;;;;;5067130;28;20055;-68
2022/05/29 00:06:45;;;;;;;15.38;3.03;;;11.10;99.90;;;;;;5066975;28;20048;-68
2022/05/29 00:09:16;;;;;;;12.20;3.28;;;11.10;99.90;;;;;;5064393;28;20123;-68
2022/05/29 00:11:42;;;;;;;13.75;3.42;;;11.10;99.90;;;;;;5067849;28;20044;-68
2022/05/29 00:14:08;;;;;;;20.10;3.55;;;11.00;99.90;;;;;;5067493;28;20542;-69
2022/05/29 00:16:33;;;;;;;16.83;3.30;;;11.00;99.90;;;;;;5066717;28;20048;-68
2022/05/29 00:18:59;;;;;;;15.55;3.30;;;11.00;99.90;;;;;;5068177;28;20473;-68
2022/05/29 00:21:28;;;;;;;16.70;3.45;;;11.00;99.90;;;;;;5068158;28;20059;-68
2022/05/29 00:23:53;;;;;;;16.52;3.15;;;11.00;99.90;;;;;;5066830;28;20059;-68
2022/05/29 00:26:19;;;;;;;9.68;2.88;;;11.00;99.90;;;;;;5068156;28;20044;-67
2022/05/29 00:28:46;;;;;;;16.13;3.45;;;11.10;99.90;;;;;;5066183;28;20079;-67
2022/05/29 00:31:12;;;;;;;15.55;3.30;;;11.20;99.90;;;;;;5066289;28;20041;-67
2022/05/29 00:33:39;;;;;;;12.48;3.25;;;11.10;99.90;;;;;;5067575;28;20048;-68
2022/05/29 00:36:07;;;;;;;14.00;3.53;;;11.10;99.90;;;;;;5067862;28;20048;-68
2022/05/29 00:38:39;;;;;;;13.07;3.30;;;11.10;99.90;;;;;;5066631;28;20070;-68
2022/05/29 00:41:17;;;;;;;12.13;3.10;;;11.10;99.90;;;;;;5068183;28;20115;-68
2022/05/29 00:44:20;;;;;;;14.82;3.72;;;11.00;99.90;;;;;;5065212;28;20056;-68
2022/05/29 00:46:53;;;;;;;15.57;3.30;;;10.90;99.90;;;;;;5066431;28;20125;-67
2022/05/29 00:49:24;;;;;;;12.05;3.05;;;10.90;99.90;;;;;;5067489;28;20048;-67
2022/05/29 00:51:55;;;;;;;10.85;3.30;;;10.90;99.90;;;;;;5065889;28;20051;-68
2022/05/29 00:54:22;;;;;;;15.35;3.30;;;10.90;99.90;;;;;;5066032;28;20040;-67
2022/05/29 00:56:48;;;;;;;14.77;3.88;;;10.90;99.90;;;;;;5066562;28;20044;-67
2022/05/29 00:59:20;;;;;;;14.27;3.75;;;10.50;99.90;;;;;;5065875;28;20040;-68
2022/05/29 01:01:46;;;;;;;15.65;3.67;;;10.90;99.90;;;;;;5065576;28;20472;-67
2022/05/29 01:04:12;;;;;;;11.65;3.50;;;11.40;99.90;;;;;;5067510;28;20037;-68
2022/05/29 01:06:38;;;;;;;15.05;3.15;;;10.90;99.90;;;;;;5067441;28;20056;-67
2022/05/29 01:09:07;;;;;;;14.77;3.67;;;10.80;99.90;;;;;;5066858;28;20056;-68
2022/05/29 01:11:42;;;;;;;14.15;3.45;;;10.80;99.90;;;;;;5066733;28;20033;-68
2022/05/29 01:14:24;;;;;;;14.75;3.40;;;10.80;99.90;;;;;;5066531;28;20047;-68
2022/05/29 01:17:09;;;;;;;18.00;3.60;;;10.80;99.90;;;;;;5069193;28;20047;-68
2022/05/29 01:19:59;;;;;;;11.13;3.05;;;10.80;99.90;;;;;;5070272;28;20049;-67
2022/05/29 01:22:36;;;;;;;9.82;3.08;;;10.90;99.90;;;;;;5070314;28;20135;-67
2022/05/29 01:25:14;;;;;;;10.55;3.15;;;10.90;99.90;;;;;;5071143;28;20045;-68
2022/05/29 01:27:53;;;;;;;9.85;2.80;;;10.90;99.90;;;;;;5048319;28;20057;-68
2022/05/29 01:30:24;;;;;;;10.30;3.10;;;11.00;99.90;;;;;;5065510;28;20052;-68
2022/05/29 01:33:03;;;;;;;12.05;3.03;;;10.90;99.90;;;;;;5051364;28;20381;-67
2022/05/29 01:35:36;;;;;;;14.57;3.38;;;11.00;99.90;;;;;;5050614;28;20472;-68
2022/05/29 01:38:15;;;;;;;16.25;3.40;;;11.00;99.90;;;;;;5051994;28;20045;-67
2022/05/29 01:40:51;;;;;;;12.27;3.05;;;10.90;99.90;;;;;;5068431;28;20103;-68
2022/05/29 01:43:55;;;;;;;18.67;3.38;;;10.90;99.90;;;;;;5052779;28;20040;-68
2022/05/29 01:46:30;;;;;;;13.50;3.40;;;10.90;99.90;;;;;;5070430;28;20086;-67
2022/05/29 01:49:03;;;;;;;17.42;3.47;;;10.90;99.90;;;;;;5071997;28;20135;-68
2022/05/29 01:51:51;;;;;;;15.55;3.80;;;10.90;99.90;;;;;;5070352;28;20048;-67
2022/05/29 01:54:38;;;;;;;13.52;3.25;;;10.80;99.90;;;;;;5068847;28;20047;-68
2022/05/29 01:57:12;;;;;;;12.35;3.20;;;10.90;99.90;;;;;;5073122;28;20110;-68
2022/05/29 01:59:50;;;;;;;9.13;2.83;;;10.90;99.90;;;;;;5052062;28;20131;-68
2022/05/29 02:02:21;;;;;;;12.57;2.97;;;10.80;99.90;;;;;;5050092;28;20049;-69
2022/05/29 02:04:51;;;;;;;13.10;3.10;;;10.90;99.90;;;;;;5066311;28;20070;-68
2022/05/29 02:10:21;;;;;;;13.18;3.33;;;10.90;99.90;;;;;;5070173;28;20048;-68
2022/05/29 02:13:01;;;;;;;12.27;2.67;;;10.90;99.90;;;;;;5070252;28;20052;-68
2022/05/29 02:15:52;;;;;;;10.40;3.10;;;10.90;99.90;;;;;;5061501;28;20355;-68
2022/05/29 02:18:38;;;;;;;11.93;2.80;;;10.90;99.90;;;;;;5050054;28;20156;-68
2022/05/29 02:21:32;;;;;;;10.20;2.95;;;11.00;99.90;;;;;;5050681;28;20087;-68
2022/05/29 02:24:03;;;;;;;12.65;3.30;;;10.90;99.90;;;;;;5049644;28;20179;-68
2022/05/29 02:26:33;;;;;;;8.60;3.10;;;11.00;99.90;;;;;;5031837;28;20052;-68
2022/05/29 02:29:07;;;;;;;15.07;3.10;;;11.00;99.90;;;;;;5049846;28;20037;-68
2022/05/29 02:32:09;;;;;;;12.13;2.80;;;11.00;99.90;;;;;;5065069;28;20067;-68
2022/05/29 02:35:09;;;;;;;15.95;3.30;;;11.10;99.90;;;;;;5071614;28;20396;-68
2022/05/29 02:37:41;;;;;;;17.42;3.63;;;11.00;99.90;;;;;;5048262;28;20049;-68
2022/05/29 02:40:12;;;;;;;14.25;3.30;;;11.10;99.90;;;;;;5049856;28;20080;-68
2022/05/29 02:43:03;;;;;;;14.73;2.80;;;11.10;99.90;;;;;;5049964;28;20106;-67
2022/05/29 02:46:00;;;;;;;11.50;2.90;;;11.10;99.90;;;;;;5062406;28;20044;-67
2022/05/29 02:48:56;;;;;;;11.63;3.10;;;11.20;99.90;;;;;;5069882;28;20185;-67
2022/05/29 02:51:42;;;;;;;14.17;2.73;;;11.30;99.90;;;;;;5068920;28;20080;-67
2022/05/29 02:54:12;;;;;;;10.77;2.90;;;11.20;99.90;;;;;;5069119;28;20044;-67
2022/05/29 02:56:38;;;;;;;12.23;2.92;;;11.20;99.90;;;;;;5069541;28;20055;-67
2022/05/29 02:59:03;;;;;;;15.48;2.95;;;11.20;99.90;;;;;;5058129;28;20045;-68
2022/05/29 03:01:47;;;;;;;13.32;3.15;;;11.20;99.90;;;;;;5068775;28;20048;-67
2022/05/29 03:04:33;;;;;;;11.65;3.05;;;11.10;99.90;;;;;;5067352;28;20044;-67
2022/05/29 03:07:32;;;;;;;9.82;2.88;;;11.10;99.90;;;;;;5069745;28;20045;-68
2022/05/29 03:10:12;;;;;;;8.23;2.70;;;11.00;99.90;;;;;;5072372;28;20509;-68
2022/05/29 03:12:49;;;;;;;14.52;3.10;;;11.00;99.90;;;;;;5066608;28;20167;-68
2022/05/29 03:15:34;;;;;;;10.25;3.08;;;11.00;99.90;;;;;;5068190;28;20037;-68
2022/05/29 03:18:22;;;;;;;16.77;3.20;;;11.00;99.90;;;;;;5069755;28;20055;-68
2022/05/29 03:21:07;;;;;;;12.57;3.28;;;11.00;99.90;;;;;;5068312;28;20087;-68
2022/05/29 03:23:47;;;;;;;16.48;3.78;;;10.90;99.90;;;;;;5069243;28;20033;-68
2022/05/29 03:26:34;;;;;;;11.77;2.85;;;10.90;99.90;;;;;;5068568;28;20044;-68
2022/05/29 03:29:10;;;;;;;10.30;2.75;;;11.00;99.90;;;;;;5068034;28;20131;-68
2022/05/29 03:31:39;;;;;;;11.18;3.05;;;11.00;99.90;;;;;;5067921;28;20500;-68
2022/05/29 03:34:06;;;;;;;9.15;2.63;;;11.00;99.90;;;;;;5068409;28;20048;-67
2022/05/29 03:36:32;;;;;;;11.50;2.40;;;11.00;99.90;;;;;;5068806;28;20060;-68
2022/05/29 03:38:57;;;;;;;9.27;2.05;;;11.10;99.90;;;;;;5068978;28;20056;-68
2022/05/29 03:41:39;;;;;;;11.30;2.28;;;11.80;99.90;;;;;;5067510;28;20037;-68
2022/05/29 03:44:05;;;;;;;8.95;2.53;;;11.20;99.90;;;;;;5067471;28;20045;-68
2022/05/29 03:46:31;;;;;;;7.47;2.10;;;11.10;99.90;;;;;;5068134;28;20037;-68
2022/05/29 03:48:56;;;;;;;10.90;2.60;;;11.10;99.90;;;;;;5067758;28;20120;-68
2022/05/29 03:51:22;;;;;;;11.70;2.50;;;11.20;99.90;;;;;;5067030;28;20041;-67
2022/05/29 03:53:48;;;;;;;10.07;2.50;;;11.20;99.90;;;;;;5067627;28;20040;-67
2022/05/29 03:56:13;;;;;;;12.15;2.50;;;11.20;99.90;;;;;;5072243;28;20048;-67
2022/05/29 03:58:39;;;;;;;10.45;2.92;;;11.10;99.90;;;;;;5047617;28;20482;-67
2022/05/29 04:01:04;;;;;;;9.85;2.33;;;11.20;99.90;;;;;;5046126;28;20190;-67
2022/05/29 04:03:30;;;;;;;9.88;2.53;;;11.20;99.90;;;;;;5066655;28;20044;-67
2022/05/29 04:05:56;;;;;;;11.85;2.58;;;11.20;99.90;;;;;;5068610;28;20175;-67
2022/05/29 04:13:51;;;;;;;13.60;2.47;;;11.10;99.90;;;;;;5049566;28;20044;-68
2022/05/29 04:16:16;;;;;;;13.35;2.80;;;11.10;99.90;;;;;;5066770;28;20047;-68
2022/05/29 04:18:42;;;;;;;11.80;3.25;;;11.10;99.90;;;;;;5066681;28;20046;-68
2022/05/29 04:21:08;;;;;;;14.38;3.10;;;11.00;99.90;;;;;;5068504;28;20051;-68
2022/05/29 04:23:34;;;;;;;15.00;3.05;;;11.10;99.90;;;;;;5065813;28;20073;-68
2022/05/29 04:26:00;;;;;;;9.60;2.58;;;11.10;99.90;;;;;;5067999;28;20079;-67
2022/05/29 04:28:26;;;;;;;12.70;2.90;;;11.10;99.90;;;;;;5065453;28;20040;-67
2022/05/29 04:30:51;;;;;;;15.13;2.83;;;11.10;99.90;;;;;;5066365;28;20036;-67
2022/05/29 04:33:17;;;;;;;14.15;2.85;;;11.10;99.90;;;;;;5068271;28;20050;-67
2022/05/29 04:35:47;;;;;;;10.85;2.80;;;12.40;99.90;;;;;;5068260;28;20503;-67
2022/05/29 04:38:13;;;;;;;11.50;2.65;;;11.20;99.90;;;;;;5048822;28;20045;-67
2022/05/29 04:40:41;;;;;;;16.38;3.15;;;11.10;99.90;;;;;;5067059;28;20054;-67
2022/05/29 04:43:07;;;;;;;11.13;2.97;;;11.10;99.90;;;;;;5066556;28;20444;-67
2022/05/29 04:45:34;;;;;;;12.55;3.00;;;11.00;99.90;;;;;;5066360;28;20068;-67
2022/05/29 04:47:59;;;;;;;12.80;3.00;;;11.00;99.90;;;;;;5067007;28;20467;-67
2022/05/29 04:50:25;;;;;;;15.23;3.28;;;11.00;99.90;;;;;;5070328;28;20079;-67
2022/05/29 04:52:51;;;;;;;21.17;3.42;;;10.90;99.90;;;;;;5070905;28;20076;-67
2022/05/29 04:55:18;;;;;;;16.33;3.20;;;10.90;99.90;;;;;;5071150;28;20083;-67
2022/05/29 04:57:43;;;;;;;13.80;3.33;;;11.00;99.90;;;;;;5068718;28;20043;-67
2022/05/29 05:00:10;;;;;;;14.50;3.13;;;11.00;99.90;;;;;;5050437;28;20485;-68
2022/05/29 05:02:36;;;;;;;14.38;3.50;;;11.00;99.90;;;;;;5066570;28;20055;-67
2022/05/29 05:05:02;;;;;;;13.50;3.15;;;11.10;99.90;;;;;;5051251;28;20045;-67
2022/05/29 05:07:27;;;;;;;15.13;2.97;;;11.10;99.90;;;;;;5056161;28;20028;-67
2022/05/29 05:09:53;;;;;;;16.08;3.13;;;11.10;99.90;;;;;;5072037;28;20059;-67
2022/05/29 05:12:18;;;;;;;21.15;3.03;;;11.10;99.90;;;;;;5070246;28;20090;-68
2022/05/29 05:14:44;;;;;;;16.50;2.80;;;11.20;99.90;;;;;;5071211;28;20087;-68
2022/05/29 05:17:10;;;;;;;14.02;2.97;;;11.30;99.90;;;;;;5069656;28;20045;-68
2022/05/29 05:19:35;;;;;;;11.00;2.80;;;11.30;99.90;;;;;;5070148;28;20045;-68
2022/05/29 05:22:03;;;;;;;15.90;2.50;;;11.30;99.90;;;;;;5071620;28;20755;-67
2022/05/29 05:24:28;;;;;;;12.85;2.63;;;11.40;99.90;;;;;;5070860;28;20083;-68
2022/05/29 05:26:56;;;;;;;16.77;3.25;;;11.40;99.90;;;;;;5070234;28;20076;-67
2022/05/29 05:29:22;;;;;;;17.17;2.83;;;11.60;99.90;;;;;;5070110;28;20467;-67
2022/05/29 05:31:47;;;;;;;14.60;2.80;;;11.30;99.90;;;;;;5070635;28;20044;-67
2022/05/29 05:34:13;;;;;;;17.55;2.90;;;11.30;99.90;;;;;;5070610;28;20036;-68
2022/05/29 05:36:38;;;;;;;16.27;2.90;;;11.30;99.90;;;;;;5070446;28;20477;-67
2022/05/29 05:39:04;;;;;;;12.75;2.80;;;11.40;99.90;;;;;;5070718;28;20037;-67
2022/05/29 05:41:30;;;;;;;18.30;3.10;;;11.40;99.90;;;;;;5071221;28;20040;-67
2022/05/29 05:43:55;;;;;;;14.18;2.65;;;11.40;99.90;;;;;;5069824;28;20518;-67
2022/05/29 05:46:21;;;;;;;14.40;3.20;;;11.30;99.90;;;;;;5070304;28;20056;-67
2022/05/29 05:48:47;;;;;;;15.02;3.30;;;11.30;99.90;;;;;;5070175;28;20040;-67
2022/05/29 05:51:13;;;;;;;14.15;2.80;;;11.40;99.90;;;;;;5070730;28;20120;-67
2022/05/29 05:53:40;;;;;;;21.48;3.53;;;11.30;99.90;;;;;;5069732;28;20036;-66
2022/05/29 05:56:11;;;;;;;13.82;3.03;;;11.40;99.90;;;;;;5070870;28;20166;-67
2022/05/29 05:58:38;;;;;;;12.93;3.03;;;11.50;99.90;;;;;;5060992;28;20056;-67
2022/05/29 06:01:06;;;;;;;13.82;3.03;;;11.50;99.90;;;;;;5052843;28;20177;-67
2022/05/29 06:03:32;;;;;;;13.43;2.80;;;11.50;99.90;;;;;;5070910;28;20053;-67
2022/05/29 06:05:58;;;;;;;14.95;3.20;;;11.60;99.90;;;;;;5070214;28;20048;-66
2022/05/29 06:08:24;;;;;;;12.88;2.67;;;11.60;99.90;;;;;;5069765;28;20106;-67
2022/05/29 06:10:50;;;;;;;20.08;4.00;;;11.70;99.90;;;;;;5068868;28;20040;-67
2022/05/29 06:13:16;;;;;;;13.38;3.10;;;11.70;99.90;;;;;;5069979;28;20044;-67
2022/05/29 06:15:46;;;;;;;17.35;3.00;;;11.80;99.90;;;;;;5068386;28;20055;-67
2022/05/29 06:18:12;;;;;;;11.40;2.45;;;11.80;99.90;;;;;;5069408;28;20045;-67
2022/05/29 06:20:38;;;;;;;8.20;2.50;;;11.90;99.90;;;;;;5051878;28;20410;-67
2022/05/29 06:23:04;;;;;;;15.40;2.63;;;11.90;99.90;;;;;;5069582;28;20155;-68
2022/05/29 06:25:30;;;;;;;10.23;2.53;;;11.90;99.90;;;;;;5070376;28;20032;-67
2022/05/29 06:27:55;;;;;;;12.18;2.88;;;11.90;99.90;;;;;;5069840;28;20055;-68
2022/05/29 06:30:21;;;;;;;12.90;2.70;;;11.90;99.90;;;;;;5069257;28;20052;-67
2022/05/29 06:32:47;;;;;;;10.95;2.38;;;12.00;99.90;;;;;;5070357;28;20405;-67
2022/05/29 06:35:15;;;;;;;11.27;2.58;;;11.90;99.90;;;;;;5053051;28;20501;-68
2022/05/29 06:37:41;;;;;;;7.63;2.03;;;11.90;99.90;;;;;;5063244;28;20044;-68
2022/05/29 06:40:09;;;;;;;11.07;2.10;;;12.30;99.90;;;;;;5069948;28;20048;-67
2022/05/29 06:42:35;;;;;;;9.57;2.15;;;12.00;99.90;;;;;;5071446;28;20040;-68
2022/05/29 06:45:01;;;;;;;7.15;2.03;;;12.00;99.90;;;;;;5069185;28;20044;-67
2022/05/29 06:47:27;;;;;;;12.25;2.13;;;12.10;99.90;;;;;;5069110;28;20405;-68
2022/05/29 06:49:53;;;;;;;9.05;2.08;;;12.10;99.90;;;;;;5069744;28;20071;-67
2022/05/29 06:52:19;;;;;;;8.98;2.00;;;12.10;99.90;;;;;;5070591;28;20044;-67
2022/05/29 06:54:48;;;;;;;8.80;2.53;;;12.00;99.90;;;;;;5070103;28;20044;-67
2022/05/29 06:57:36;;;;;;;10.27;2.60;;;12.00;99.90;;;;;;5068447;28;20485;-67
2022/05/29 07:08:05;;;;;;;10.90;2.55;;;12.30;99.90;;;;;;5069220;28;20062;-68
2022/05/29 07:10:32;;;;;;;14.30;2.70;;;12.40;99.90;;;;;;5070589;28;20040;-67
2022/05/29 07:13:00;;;;;;;13.98;3.03;;;12.20;99.90;;;;;;5069549;28;20051;-67
2022/05/29 07:15:26;;;;;;;12.75;2.58;;;12.20;99.90;;;;;;5060615;28;20124;-67
2022/05/29 07:17:52;;;;;;;8.80;2.20;;;12.10;99.90;;;;;;5063333;28;20127;-68
2022/05/29 07:20:17;;;;;;;8.82;2.80;;;12.10;99.90;;;;;;5069148;28;20067;-67
2022/05/29 07:22:44;;;;;;;11.48;2.50;;;12.00;99.90;;;;;;5067815;28;20045;-67
2022/05/29 07:25:11;;;;;;;10.55;2.40;;;12.10;99.90;;;;;;5065631;28;20056;-68
2022/05/29 07:27:38;;;;;;;10.75;2.35;;;12.10;99.90;;;;;;5068484;28;20083;-67
2022/05/29 07:30:04;;;;;;;8.95;2.22;;;12.10;99.90;;;;;;5068273;28;20397;-68
2022/05/29 07:32:30;;;;;;;7.28;1.70;;;12.10;99.90;;;;;;5065696;28;20048;-68
2022/05/29 07:34:57;;;;;;;7.38;1.73;;;12.20;99.90;;;;;;5068085;28;20085;-67
2022/05/29 07:37:24;;;;;;;8.18;1.90;;;12.30;99.90;;;;;;5065323;28;20434;-68
2022/05/29 07:39:52;;;;;;;6.60;1.83;;;12.70;99.90;;;;;;5069143;28;20040;-68
2022/05/29 07:45:05;;;;;;;6.80;1.80;;;12.50;99.90;;;;;;5067500;28;20056;-67
2022/05/29 07:47:37;;;;;;;5.22;1.70;;;12.50;99.90;;;;;;5068011;28;20044;-67
2022/05/29 07:50:04;;;;;;;5.55;1.45;;;12.60;99.90;;;;;;5068179;28;20042;-67
2022/05/29 07:52:30;;;;;;;5.85;1.50;;;12.70;99.90;;;;;;5068163;28;20048;-67
2022/05/29 07:54:55;;;;;;;5.38;1.45;;;12.80;99.90;;;;;;5068387;28;20051;-68
2022/05/29 07:57:21;;;;;;;6.93;1.60;;;12.90;99.90;;;;;;5067822;28;20409;-67
2022/05/29 07:59:47;;;;;;;6.50;1.95;;;13.70;99.90;;;;;;5066848;28;20084;-67
2022/05/29 08:02:12;;;;;;;6.55;1.83;;;13.00;99.90;;;;;;5067513;28;20049;-67
2022/05/29 08:04:39;;;;;;;7.13;1.77;;;13.10;99.90;;;;;;5060094;28;20029;-67
2022/05/29 08:07:05;;;;;;;7.60;1.52;;;12.90;99.90;;;;;;5047046;28;20437;-68
2022/05/29 08:09:31;;;;;;;5.05;1.60;;;12.70;99.90;;;;;;5054951;28;20037;-67
2022/05/29 08:11:57;;;;;;;3.97;1.42;;;12.60;99.90;;;;;;5067645;28;20135;-68
2022/05/29 08:14:23;;;;;;;5.68;1.90;;;12.60;99.90;;;;;;5066446;28;20175;-67
2022/05/29 08:16:48;;;;;;;9.73;1.73;;;12.50;99.90;;;;;;5048772;28;20102;-68
2022/05/29 08:19:14;;;;;;;7.07;2.00;;;12.70;99.90;;;;;;5045958;28;20449;-68
2022/05/29 08:21:41;;;;;;;6.85;1.70;;;12.70;99.90;;;;;;5063528;28;20233;-68
2022/05/29 08:32:19;;;;;;;10.52;2.17;;;12.80;99.90;;;;;;5047059;28;20052;-68
2022/05/29 08:34:45;;;;;;;12.18;2.47;;;12.70;99.90;;;;;;5045953;28;20419;-68
2022/05/29 08:37:11;;;;;;;10.70;2.10;;;12.60;99.90;;;;;;5061889;28;20056;-68
2022/05/29 08:39:37;;;;;;;10.30;2.22;;;12.60;99.90;;;;;;5067211;28;20036;-68
2022/05/29 08:42:03;;;;;;;7.80;2.15;;;12.60;99.90;;;;;;5067163;28;20119;-68
2022/05/29 08:44:47;;;;;;;13.05;2.40;;;12.70;99.90;;;;;;5065022;28;20119;-68
2022/05/29 08:47:15;;;;;;;13.65;2.13;;;12.70;99.90;;;;;;5053224;28;20050;-68
2022/05/29 08:49:45;;;;;;;10.65;2.17;;;12.70;99.90;;;;;;5067340;28;20040;-68
2022/05/29 08:52:35;;;;;;;9.85;1.75;;;12.60;99.90;;;;;;5066029;28;20385;-68
2022/05/29 08:55:14;;;;;;;6.22;1.77;;;12.70;99.90;;;;;;5066588;28;20182;-66
2022/05/29 08:58:20;;;;;;;8.38;1.70;;;12.60;99.90;;;;;;5054765;28;20719;-67
2022/05/29 09:01:08;;;;;;;5.80;1.88;;;12.70;99.90;;;;;;5045218;28;20049;-67
2022/05/29 09:03:43;;;;;;;6.80;1.63;;;12.70;99.90;;;;;;5045792;28;20186;-67
2022/05/29 09:06:14;;;;;;;7.85;1.70;;;12.70;99.90;;;;;;5050035;28;20527;-67
2022/05/29 09:09:11;;;;;;;8.70;2.25;;;12.70;99.90;;;;;;5050686;28;20370;-68
2022/05/29 09:11:47;;;;;;;8.00;1.88;;;12.80;99.90;;;;;;5041276;28;20495;-67
2022/05/29 09:14:35;;;;;;;6.80;1.73;;;12.90;99.90;;;;;;5046770;28;20045;-67
2022/05/29 09:17:06;;;;;;;7.60;2.00;;;13.20;99.90;;;;;;5044855;28;20049;-68
2022/05/29 09:19:43;;;;;;;9.02;2.13;;;13.30;99.90;;;;;;5048793;28;20401;-68
2022/05/29 09:22:24;;;;;;;9.25;2.22;;;13.70;99.90;;;;;;5054366;28;20036;-68
2022/05/29 09:25:00;;;;;;;9.75;2.00;;;13.20;99.90;;;;;;5066163;28;20055;-67
2022/05/29 09:27:26;;;;;;;7.72;1.98;;;13.20;99.90;;;;;;5072287;28;20060;-68
2022/05/29 09:29:53;;;;;;;9.25;2.33;;;13.10;99.90;;;;;;5066064;28;20048;-69
2022/05/29 09:32:22;;;;;;;8.98;2.30;;;13.00;99.90;;;;;;5066666;28;20055;-67
2022/05/29 09:35:15;;;;;;;7.80;1.95;;;13.00;99.90;;;;;;5066157;28;20051;-67
2022/05/29 09:38:21;;;;;;;11.90;2.10;;;13.10;99.90;;;;;;5070680;28;20452;-67
2022/05/29 09:41:02;;;;;;;8.05;2.00;;;14.20;99.90;;;;;;5058694;28;20045;-66
2022/05/29 09:43:29;;;;;;;10.27;2.15;;;13.20;99.90;;;;;;5069920;28;20084;-67
2022/05/29 09:45:55;;;;;;;10.85;2.20;;;13.20;99.90;;;;;;5069549;28;20045;-67
2022/05/29 09:51:28;;;;;;;6.43;1.90;;;13.10;99.90;;;;;;5069427;28;20044;-67
2022/05/29 09:53:57;;;;;;;8.43;1.63;;;13.30;99.90;;;;;;5062198;28;20051;-68
2022/05/29 09:56:29;;;;;;;11.32;2.58;;;13.40;99.90;;;;;;5070171;28;20076;-68
2022/05/29 09:59:04;;;;;;;9.15;1.92;;;13.50;99.90;;;;;;5068559;28;20045;-69
2022/05/29 10:01:38;;;;;;;7.33;2.10;;;13.60;99.90;;;;;;5072574;28;20082;-67
2022/05/29 10:04:06;;;;;;;6.45;1.77;;;13.70;99.90;;;;;;5074507;28;20294;-68
2022/05/29 10:06:42;;;;;;;6.47;1.70;;;13.70;99.90;;;;;;5069525;28;20397;-68
2022/05/29 10:09:10;;;;;;;9.57;2.35;;;13.80;99.90;;;;;;5069504;28;20055;-68
2022/05/29 10:11:37;;;;;;;10.23;2.08;;;13.80;99.90;;;;;;5070431;28;20060;-68
2022/05/29 10:14:25;;;;;;;8.57;2.10;;;13.90;99.90;;;;;;5052520;28;20045;-68
2022/05/29 10:16:55;;;;;;;8.73;1.90;;;13.80;99.90;;;;;;5081624;28;20090;-67
2022/05/29 10:19:41;;;;;;;7.53;2.10;;;13.80;99.90;;;;;;5068838;28;20048;-67
2022/05/29 10:22:36;;;;;;;9.30;1.80;;;13.80;99.90;;;;;;5058459;28;20049;-67
2022/05/29 10:25:23;;;;;;;7.75;2.10;;;13.70;99.90;;;;;;5067717;28;20488;-67
2022/05/29 10:27:51;;;;;;;8.70;2.22;;;13.70;99.90;;;;;;5069392;28;20393;-67
2022/05/29 10:30:44;;;;;;;9.80;2.00;;;13.60;99.90;;;;;;5072377;28;20123;-68
2022/05/29 10:33:17;;;;;;;6.95;1.70;;;13.70;99.90;;;;;;5073993;28;20045;-69
2022/05/29 10:35:43;;;;;;;9.10;2.10;;;13.80;99.90;;;;;;5049638;28;20489;-67
2022/05/29 10:38:18;;;;;;;9.65;1.77;;;14.00;99.90;;;;;;5047473;28;20064;-68
2022/05/29 10:40:47;;;;;;;7.20;1.87;;;14.20;99.90;;;;;;5056625;28;20159;-68
2022/05/29 10:43:35;;;;;;;7.90;1.95;;;14.40;99.90;;;;;;5064099;28;20287;-68
2022/05/29 10:46:15;;;;;;;7.00;2.13;;;14.60;99.90;;;;;;5045442;28;20041;-68
2022/05/29 10:49:18;;;;;;;7.05;2.00;;;14.70;99.90;;;;;;5044473;28;20053;-68
2022/05/29 10:52:01;;;;;;;5.88;1.83;;;14.40;99.90;;;;;;5064329;28;20097;-68
2022/05/29 10:55:03;;;;;;;6.07;1.60;;;14.10;99.90;;;;;;5061042;28;20040;-68
2022/05/29 10:58:13;;;;;;;8.13;1.95;;;14.00;99.90;;;;;;5063221;28;20048;-68
2022/05/29 11:00:52;;;;;;;7.38;1.92;;;13.80;99.90;;;;;;5048211;28;20063;-68
2022/05/29 11:03:35;;;;;;;8.23;2.40;;;13.60;99.90;;;;;;5060896;28;20057;-68
2022/05/29 11:06:48;;;;;;;10.25;2.08;;;13.60;99.90;;;;;;5062834;28;20048;-68
2022/05/29 11:09:44;;;;;;;8.98;1.92;;;13.60;99.90;;;;;;5040609;28;20044;-68
2022/05/29 11:12:51;;;;;;;7.30;2.08;;;13.40;99.90;;;;;;5062854;28;20059;-67
2022/05/29 11:15:25;;;;;;;8.73;1.80;;;13.40;99.90;;;;;;5058933;28;20041;-67
2022/05/29 11:18:08;;;;;;;11.00;2.00;;;13.50;99.90;;;;;;5064176;28;20078;-67
2022/05/29 11:21:05;;;;;;;8.05;1.90;;;14.60;99.90;;;;;;5060944;28;20033;-67
2022/05/29 11:23:48;;;;;;;8.95;2.17;;;13.70;99.90;;;;;;5048437;28;20056;-67
2022/05/29 11:26:33;;;;;;;13.60;2.15;;;13.90;99.90;;;;;;5062887;28;20044;-66
2022/05/29 11:29:02;;;;;;;9.75;2.22;;;14.20;99.90;;;;;;5067907;28;20437;-67
2022/05/29 11:31:40;;;;;;;9.80;2.33;;;14.10;99.90;;;;;;5067294;28;20056;-67
2022/05/29 11:34:46;;;;;;;10.38;2.22;;;14.20;99.90;;;;;;5047131;28;20037;-67
2022/05/29 11:37:31;;;;;;;12.75;2.60;;;14.30;99.90;;;;;;5045921;28;20060;-68
2022/05/29 11:40:20;;;;;;;9.82;2.20;;;14.30;99.90;;;;;;5067207;28;20052;-68
2022/05/29 11:43:16;;;;;;;13.70;2.50;;;14.40;99.90;;;;;;5065591;28;20568;-67
2022/05/29 11:52:04;;;;;;;9.27;2.10;;;14.20;99.90;;;;;;5049804;28;20052;-67
2022/05/29 11:54:36;;;;;;;10.07;2.10;;;14.20;99.90;;;;;;5049507;28;20037;-67
2022/05/29 11:57:15;;;;;;;12.63;2.80;;;14.10;99.90;;;;;;5048853;28;20127;-68
2022/05/29 12:00:04;;;;;;;10.70;2.22;;;14.00;99.90;;;;;;5045594;28;20056;-68
2022/05/29 12:02:40;;;;;;;9.38;2.38;;;14.00;99.90;;;;;;5047773;28;20053;-68
2022/05/29 12:05:34;;;;;;;8.68;2.00;;;13.90;99.90;;;;;;5047663;28;20398;-68
2022/05/29 12:08:05;;;;;;;8.77;2.40;;;13.80;99.90;;;;;;5049911;28;20084;-68
2022/05/29 12:10:57;;;;;;;8.35;1.88;;;13.70;99.90;;;;;;5050966;28;20119;-68
2022/05/29 12:13:29;;;;;;;8.63;1.90;;;13.70;99.90;;;;;;5046441;28;20060;-67
2022/05/29 12:16:01;;;;;;;11.25;2.00;;;13.80;99.90;;;;;;5047053;28;20123;-68
2022/05/29 12:18:40;;;;;;;12.27;2.20;;;13.60;99.90;;;;;;5047562;28;20422;-68
2022/05/29 12:21:07;;;;;;;7.68;2.03;;;13.60;99.90;;;;;;5048377;28;20429;-68
2022/05/29 12:23:39;;;;;;;8.73;2.00;;;13.50;99.90;;;;;;5048038;28;20041;-69
2022/05/29 12:26:10;;;;;;;9.75;2.10;;;13.50;99.90;;;;;;5047392;28;20515;-67
2022/05/29 12:28:42;;;;;;;9.57;2.38;;;13.40;99.90;;;;;;5046908;28;20400;-68
2022/05/29 12:31:26;;;;;;;9.68;2.58;;;13.40;99.90;;;;;;5047571;28;20503;-68
2022/05/29 12:33:52;;;;;;;9.38;2.70;;;13.50;99.90;;;;;;5046071;28;20472;-68
2022/05/29 12:36:24;;;;;;;11.82;2.60;;;13.70;99.90;;;;;;5047600;28;20052;-68
2022/05/29 12:39:15;;;;;;;10.30;2.10;;;14.00;99.90;;;;;;5047953;28;20454;-68
2022/05/29 12:41:54;;;;;;;13.93;2.30;;;14.20;99.90;;;;;;5046895;28;20159;-67
2022/05/29 12:44:56;;;;;;;11.13;2.28;;;15.10;99.90;;;;;;5046503;28;20045;-67
2022/05/29 12:48:02;;;;;;;15.13;2.50;;;14.70;99.90;;;;;;5046203;28;20130;-67
2022/05/29 12:50:33;;;;;;;9.10;2.45;;;15.10;99.90;;;;;;5047128;28;20167;-67
2022/05/29 12:53:02;;;;;;;11.40;1.95;;;15.30;99.90;;;;;;5046065;28;20468;-67
2022/05/29 12:55:54;;;;;;;10.00;2.38;;;15.40;99.90;;;;;;5046692;28;20509;-68
2022/05/29 12:58:37;;;;;;;9.40;2.17;;;15.40;99.90;;;;;;5046896;28;20453;-67
2022/05/29 13:01:09;;;;;;;11.02;2.17;;;15.20;99.90;;;;;;5045951;28;20489;-68
2022/05/29 13:04:10;;;;;;;7.72;1.85;;;15.00;99.90;;;;;;5047734;28;20464;-67
2022/05/29 13:06:54;;;;;;;12.13;2.47;;;15.00;99.90;;;;;;5046574;28;20044;-67
2022/05/29 13:09:34;;;;;;;10.48;2.10;;;15.00;99.90;;;;;;5045779;28;20452;-68
2022/05/29 13:12:07;;;;;;;12.43;2.35;;;15.00;99.90;;;;;;5051664;28;20052;-68
2022/05/29 13:14:35;;;;;;;9.43;2.40;;;15.00;99.90;;;;;;5051348;28;20136;-69
2022/05/29 13:17:05;;;;;;;10.57;2.47;;;15.00;99.90;;;;;;5050483;28;20129;-68
2022/05/29 13:20:01;;;;;;;11.90;2.22;;;15.00;99.90;;;;;;5051915;28;20080;-68
2022/05/29 13:22:48;;;;;;;8.95;2.13;;;15.20;99.90;;;;;;5051068;28;20105;-67
2022/05/29 13:25:16;;;;;;;13.57;2.50;;;15.20;99.90;;;;;;5051575;28;20139;-68
2022/05/29 13:27:41;;;;;;;13.18;2.58;;;15.10;99.90;;;;;;5050393;28;20102;-67
2022/05/29 13:30:29;;;;;;;7.72;2.22;;;15.10;99.90;;;;;;5048733;28;20053;-67
2022/05/29 13:33:34;;;;;;;11.63;2.30;;;15.10;99.90;;;;;;5065834;28;20383;-67
2022/05/29 13:36:00;;;;;;;10.43;2.33;;;15.40;99.90;;;;;;5050617;28;20059;-67
2022/05/29 13:38:44;;;;;;;7.15;1.90;;;15.40;99.90;;;;;;5048968;28;20045;-67
2022/05/29 13:41:26;;;;;;;8.52;2.00;;;15.40;99.90;;;;;;5050412;28;20041;-68
2022/05/29 13:43:52;;;;;;;9.15;2.10;;;15.10;99.90;;;;;;5047935;28;20045;-68
2022/05/29 13:46:26;;;;;;;8.75;2.15;;;15.00;99.90;;;;;;5050498;28;20385;-69
2022/05/29 13:49:22;;;;;;;15.05;2.35;;;15.00;99.90;;;;;;5049253;28;20097;-67
2022/05/29 13:51:50;;;;;;;13.97;2.37;;;15.00;99.90;;;;;;5049981;28;20057;-67
2022/05/29 13:54:30;;;;;;;7.93;2.08;;;14.90;99.90;;;;;;5049072;28;20095;-67